Map

Track Data

SID SEASON NUMBER BASIN SUBBASIN NAME ISO_TIME NATURE LAT LON WMO_WIND WMO_PRES WMO_AGENCY TRACK_TYPE DIST2LAND LANDFALL IFLAG USA_AGENCY USA_ATCF_ID USA_LAT USA_LON USA_RECORD USA_STATUS USA_WIND USA_PRES USA_SSHS USA_R34_NE USA_R34_SE USA_R34_SW USA_R34_NW USA_R50_NE USA_R50_SE USA_R50_SW USA_R50_NW USA_R64_NE USA_R64_SE USA_R64_SW USA_R64_NW USA_POCI USA_ROCI USA_RMW USA_EYE TOKYO_LAT TOKYO_LON TOKYO_GRADE TOKYO_WIND TOKYO_PRES TOKYO_R50_DIR TOKYO_R50_LONG TOKYO_R50_SHORT TOKYO_R30_DIR TOKYO_R30_LONG TOKYO_R30_SHORT TOKYO_LAND CMA_LAT CMA_LON CMA_CAT CMA_WIND CMA_PRES HKO_LAT HKO_LON HKO_CAT HKO_WIND HKO_PRES NEWDELHI_LAT NEWDELHI_LON NEWDELHI_GRADE NEWDELHI_WIND NEWDELHI_PRES NEWDELHI_CI NEWDELHI_DP NEWDELHI_POCI REUNION_LAT REUNION_LON REUNION_TYPE REUNION_WIND REUNION_PRES REUNION_TNUM REUNION_CI REUNION_RMW REUNION_R34_NE REUNION_R34_SE REUNION_R34_SW REUNION_R34_NW REUNION_R50_NE REUNION_R50_SE REUNION_R50_SW REUNION_R50_NW REUNION_R64_NE REUNION_R64_SE REUNION_R64_SW REUNION_R64_NW BOM_LAT BOM_LON BOM_TYPE BOM_WIND BOM_PRES BOM_TNUM BOM_CI BOM_RMW BOM_R34_NE BOM_R34_SE BOM_R34_SW BOM_R34_NW BOM_R50_NE BOM_R50_SE BOM_R50_SW BOM_R50_NW BOM_R64_NE BOM_R64_SE BOM_R64_SW BOM_R64_NW BOM_ROCI BOM_POCI BOM_EYE BOM_POS_METHOD BOM_PRES_METHOD NADI_LAT NADI_LON NADI_CAT NADI_WIND NADI_PRES WELLINGTON_LAT WELLINGTON_LON WELLINGTON_WIND WELLINGTON_PRES DS824_LAT DS824_LON DS824_STAGE DS824_WIND DS824_PRES TD9636_LAT TD9636_LON TD9636_STAGE TD9636_WIND TD9636_PRES TD9635_LAT TD9635_LON TD9635_WIND TD9635_PRES TD9635_ROCI NEUMANN_LAT NEUMANN_LON NEUMANN_CLASS NEUMANN_WIND NEUMANN_PRES MLC_LAT MLC_LON MLC_CLASS MLC_WIND MLC_PRES USA_GUST BOM_GUST BOM_GUST_PER REUNION_GUST REUNION_GUST_PER USA_SEAHGT USA_SEARAD_NE USA_SEARAD_SE USA_SEARAD_SW USA_SEARAD_NW STORM_SPEED STORM_DIR
1898264N11280 1898 42 NA CS NOT_NAMED 1898-09-20 12:00:00 TS 11.0000 -79.8000 50 hurdat_atl main 168 168 O_____________ hurdat_atl AL061898 11.0000 -79.8000 TS 50 0 14 324
1898264N11280 1898 42 NA CS NOT_NAMED 1898-09-20 15:00:00 TS 11.5576 -80.2097 main 241 241 P_____________ AL061898 11.5576 -80.2097 TS 50 0 14 325
1898264N11280 1898 42 NA CS NOT_NAMED 1898-09-20 18:00:00 TS 12.1000 -80.6000 50 hurdat_atl main 307 282 O_____________ hurdat_atl AL061898 12.1000 -80.6000 TS 50 0 13 325
1898264N11280 1898 42 NA CS NOT_NAMED 1898-09-20 21:00:00 TS 12.6149 -80.9577 main 271 238 P_____________ AL061898 12.6149 -80.9577 TS 50 0 12 326
1898264N11280 1898 42 NA CS NOT_NAMED 1898-09-21 00:00:00 TS 13.1000 -81.3000 50 hurdat_atl main 238 194 O_____________ hurdat_atl AL061898 13.1000 -81.3000 TS 50 0 12 324
1898264N11280 1898 42 NA CS NOT_NAMED 1898-09-21 03:00:00 TS 13.5650 -81.6576 main 179 133 P_____________ AL061898 13.5650 -81.6576 TS 50 0 11 323
1898264N11280 1898 42 NA CS NOT_NAMED 1898-09-21 06:00:00 TS 14.0000 -82.0000 50 hurdat_atl main 133 97 O_____________ hurdat_atl AL061898 14.0000 -82.0000 TS 50 0 11 323
1898264N11280 1898 42 NA CS NOT_NAMED 1898-09-21 09:00:00 TS 14.4225 -82.3151 main 97 58 P_____________ AL061898 14.4225 -82.3151 TS 50 0 10 324
1898264N11280 1898 42 NA CS NOT_NAMED 1898-09-21 12:00:00 TS 14.8000 -82.6000 50 hurdat_atl main 58 24 O_____________ hurdat_atl AL061898 14.8000 -82.6000 TS 50 0 9 322
1898264N11280 1898 42 NA CS NOT_NAMED 1898-09-21 15:00:00 TS 15.1075 -82.8651 main 24 24 P_____________ AL061898 15.1075 -82.8651 TS 50 0 8 321
1898264N11280 1898 42 NA CS NOT_NAMED 1898-09-21 18:00:00 TS 15.4000 -83.1000 50 hurdat_atl main 34 31 O_____________ hurdat_atl AL061898 15.4000 -83.1000 TS 50 0 8 327
1898264N11280 1898 42 NA CS NOT_NAMED 1898-09-21 21:00:00 TS 15.7499 -83.3001 main 46 46 P_____________ AL061898 15.7499 -83.3001 TS 50 0 8 331
1898264N11280 1898 42 NA CS NOT_NAMED 1898-09-22 00:00:00 TS 16.1000 -83.5000 50 hurdat_atl main 77 77 O_____________ hurdat_atl AL061898 16.1000 -83.5000 TS 50 0 8 327
1898264N11280 1898 42 NA CS NOT_NAMED 1898-09-22 03:00:00 TS 16.4075 -83.7426 main 92 85 P_____________ AL061898 16.4075 -83.7426 TS 50 0 8 321
1898264N11280 1898 42 NA CS NOT_NAMED 1898-09-22 06:00:00 TS 16.7000 -84.0000 50 hurdat_atl main 105 105 O_____________ hurdat_atl AL061898 16.7000 -84.0000 TS 50 0 8 321
1898264N11280 1898 42 NA CS NOT_NAMED 1898-09-22 09:00:00 TS 16.9924 -84.2427 main 134 130 P_____________ AL061898 16.9924 -84.2427 TS 50 0 8 321
1898264N11280 1898 42 NA CS NOT_NAMED 1898-09-22 12:00:00 TS 17.3000 -84.5000 50 hurdat_atl main 158 158 O_____________ hurdat_atl AL061898 17.3000 -84.5000 TS 50 0 8 321
1898264N11280 1898 42 NA CS NOT_NAMED 1898-09-22 15:00:00 TS 17.6425 -84.7925 main 190 190 P_____________ AL061898 17.6425 -84.7925 TS 50 0 9 321
1898264N11280 1898 42 NA CS NOT_NAMED 1898-09-22 18:00:00 TS 18.0000 -85.1000 50 hurdat_atl main 235 235 O_____________ hurdat_atl AL061898 18.0000 -85.1000 TS 50 0 9 321
1898264N11280 1898 42 NA CS NOT_NAMED 1898-09-22 21:00:00 TS 18.3500 -85.4001 main 241 197 P_____________ AL061898 18.3500 -85.4001 TS 50 0 9 321
1898264N11280 1898 42 NA CS NOT_NAMED 1898-09-23 00:00:00 TS 18.7000 -85.7000 50 hurdat_atl main 197 157 O_____________ hurdat_atl AL061898 18.7000 -85.7000 TS 50 0 9 321
1898264N11280 1898 42 NA CS NOT_NAMED 1898-09-23 03:00:00 TS 19.0574 -86.0001 main 153 115 P_____________ AL061898 19.0574 -86.0001 TS 50 0 9 321
1898264N11280 1898 42 NA CS NOT_NAMED 1898-09-23 06:00:00 TS 19.4000 -86.3000 50 hurdat_atl main 115 86 O_____________ hurdat_atl AL061898 19.4000 -86.3000 TS 50 0 9 319
1898264N11280 1898 42 NA CS NOT_NAMED 1898-09-23 09:00:00 TS 19.7149 -86.6001 main 86 62 P_____________ AL061898 19.7149 -86.6001 TS 50 0 8 317
1898264N11280 1898 42 NA CS NOT_NAMED 1898-09-23 12:00:00 TS 20.0000 -86.9000 50 hurdat_atl main 62 30 O_____________ hurdat_atl AL061898 20.0000 -86.9000 TS 50 0 8 314
1898264N11280 1898 42 NA CS NOT_NAMED 1898-09-23 15:00:00 TS 20.2574 -87.2001 main 23 0 P_____________ AL061898 20.2574 -87.2001 TS 45 0 8 312
1898264N11280 1898 42 NA NA NOT_NAMED 1898-09-23 18:00:00 TS 20.5000 -87.5000 40 hurdat_atl main 0 0 O_____________ hurdat_atl AL061898 20.5000 -87.5000 TS 40 0 8 311
1898264N11280 1898 42 NA NA NOT_NAMED 1898-09-23 21:00:00 TS 20.7575 -87.8075 main 0 0 P_____________ AL061898 20.7575 -87.8075 TS 37 0 8 312
1898264N11280 1898 42 NA NA NOT_NAMED 1898-09-24 00:00:00 TS 21.0000 -88.1000 35 hurdat_atl main 0 0 O_____________ hurdat_atl AL061898 21.0000 -88.1000 TS 35 0 7 312
1898264N11280 1898 42 NA NA NOT_NAMED 1898-09-24 03:00:00 TS 21.2074 -88.3502 main 0 0 P_____________ AL061898 21.2074 -88.3502 TS 35 0 6 311
1898264N11280 1898 42 NA NA NOT_NAMED 1898-09-24 06:00:00 TS 21.4000 -88.6000 35 hurdat_atl main 0 0 O_____________ hurdat_atl AL061898 21.4000 -88.6000 TS 35 0 6 308
1898264N11280 1898 42 NA GM NOT_NAMED 1898-09-24 09:00:00 TS 21.6000 -88.9000 main 24 24 P_____________ AL061898 21.6000 -88.9000 TS 37 0 7 306
1898264N11280 1898 42 NA GM NOT_NAMED 1898-09-24 12:00:00 TS 21.8000 -89.2000 40 hurdat_atl main 55 55 O_____________ hurdat_atl AL061898 21.8000 -89.2000 TS 40 0 7 308
1898264N11280 1898 42 NA GM NOT_NAMED 1898-09-24 15:00:00 TS 22.0074 -89.4576 main 80 80 P_____________ AL061898 22.0074 -89.4576 TS 40 0 6 311
1898264N11280 1898 42 NA GM NOT_NAMED 1898-09-24 18:00:00 TS 22.2000 -89.7000 40 hurdat_atl main 108 108 O_____________ hurdat_atl AL061898 22.2000 -89.7000 TS 40 0 6 307
1898264N11280 1898 42 NA GM NOT_NAMED 1898-09-24 21:00:00 TS 22.3500 -89.9501 main 123 123 P_____________ AL061898 22.3500 -89.9501 TS 42 0 6 303
1898264N11280 1898 42 NA GM NOT_NAMED 1898-09-25 00:00:00 TS 22.5000 -90.2000 45 hurdat_atl main 148 148 O_____________ hurdat_atl AL061898 22.5000 -90.2000 TS 45 0 6 307
1898264N11280 1898 42 NA GM NOT_NAMED 1898-09-25 03:00:00 TS 22.6925 -90.4500 main 178 178 P_____________ AL061898 22.6925 -90.4500 TS 47 0 6 311
1898264N11280 1898 42 NA GM NOT_NAMED 1898-09-25 06:00:00 TS 22.9000 -90.7000 50 hurdat_atl main 205 205 O_____________ hurdat_atl AL061898 22.9000 -90.7000 TS 50 0 6 312
1898264N11280 1898 42 NA GM NOT_NAMED 1898-09-25 09:00:00 TS 23.0999 -90.9426 main 231 231 P_____________ AL061898 23.0999 -90.9426 TS 50 0 6 311
1898264N11280 1898 42 NA GM NOT_NAMED 1898-09-25 12:00:00 TS 23.3000 -91.2000 50 hurdat_atl main 262 262 O_____________ hurdat_atl AL061898 23.3000 -91.2000 TS 50 0 6 308
1898264N11280 1898 42 NA GM NOT_NAMED 1898-09-25 15:00:00 TS 23.5000 -91.4926 main 295 295 P_____________ AL061898 23.5000 -91.4926 TS 50 0 7 306
1898264N11280 1898 42 NA GM NOT_NAMED 1898-09-25 18:00:00 TS 23.7000 -91.8000 50 hurdat_atl main 329 329 O_____________ hurdat_atl AL061898 23.7000 -91.8000 TS 50 0 7 306
1898264N11280 1898 42 NA GM NOT_NAMED 1898-09-25 21:00:00 TS 23.8999 -92.0926 main 363 363 P_____________ AL061898 23.8999 -92.0926 TS 50 0 7 306
1898264N11280 1898 42 NA GM NOT_NAMED 1898-09-26 00:00:00 TS 24.1000 -92.4000 50 hurdat_atl main 398 398 O____________O hurdat_atl AL061898 24.1000 -92.4000 TS 50 0 24.1000 -92.4000 TD 30 7 303
1898264N11280 1898 42 NA GM NOT_NAMED 1898-09-26 03:00:00 TS 24.2920 -92.7515 main 440 430 P____________P AL061898 24.2925 -92.7501 TS 50 0 24.2902 -92.7573 TD 30 8 302
1898264N11280 1898 42 NA GM NOT_NAMED 1898-09-26 06:00:00 TS 24.5000 -93.1000 50 hurdat_atl main 430 395 O____________O hurdat_atl AL061898 24.5000 -93.1000 TS 50 0 24.5000 -93.1000 TD 30 8 307
1898264N11280 1898 42 NA GM NOT_NAMED 1898-09-26 09:00:00 TS 24.7424 -93.4151 main 395 357 P____________P AL061898 24.7424 -93.4151 TS 50 0 24.7424 -93.4151 TD 30 7 312
1898264N11280 1898 42 NA GM NOT_NAMED 1898-09-26 12:00:00 TS 25.0000 -93.7000 50 hurdat_atl main 357 323 O____________O hurdat_atl AL061898 25.0000 -93.7000 TS 50 0 25.0000 -93.7000 TD 30 7 315
1898264N11280 1898 42 NA GM NOT_NAMED 1898-09-26 15:00:00 TS 25.2425 -93.9726 main 323 295 P____________P AL061898 25.2425 -93.9726 TS 50 0 25.2425 -93.9726 TD 30 7 318
1898264N11280 1898 42 NA GM NOT_NAMED 1898-09-26 18:00:00 TS 25.5000 -94.2000 50 hurdat_atl main 295 270 O____________O hurdat_atl AL061898 25.5000 -94.2000 TS 50 0 25.5000 -94.2000 TD 30 7 327
1898264N11280 1898 42 NA GM NOT_NAMED 1898-09-26 21:00:00 TS 25.7924 -94.3726 main 270 259 P____________P AL061898 25.7924 -94.3726 TS 50 0 25.7924 -94.3726 TD 32 7 336
1898264N11280 1898 42 NA GM NOT_NAMED 1898-09-27 00:00:00 TS 26.1000 -94.5000 50 hurdat_atl main 259 250 O____________O hurdat_atl AL061898 26.1000 -94.5000 TS 50 0 26.1000 -94.5000 TS 35 6 340
1898264N11280 1898 42 NA GM NOT_NAMED 1898-09-27 03:00:00 TS 26.4000 -94.6151 main 253 245 P____________P AL061898 26.4000 -94.6151 TS 50 0 26.4000 -94.6151 TS 37 6 343
1898264N11280 1898 42 NA GM NOT_NAMED 1898-09-27 06:00:00 TS 26.7000 -94.7000 50 hurdat_atl main 247 214 O____________O hurdat_atl AL061898 26.7000 -94.7000 TS 50 0 26.7000 -94.7000 TS 40 6 348
1898264N11280 1898 42 NA GM NOT_NAMED 1898-09-27 09:00:00 TS 27.0000 -94.7576 main 214 186 P____________P AL061898 27.0000 -94.7576 TS 50 0 27.0000 -94.7576 TS 42 6 352
1898264N11280 1898 42 NA GM NOT_NAMED 1898-09-27 12:00:00 TS 27.3000 -94.8000 50 hurdat_atl main 186 153 O____________O hurdat_atl AL061898 27.3000 -94.8000 TS 50 0 27.3000 -94.8000 TS 45 6 351
1898264N11280 1898 42 NA GM NOT_NAMED 1898-09-27 15:00:00 TS 27.5925 -94.8649 main 153 121 P____________P AL061898 27.5925 -94.8649 TS 50 0 27.5925 -94.8649 TS 45 6 352
1898264N11280 1898 42 NA GM NOT_NAMED 1898-09-27 18:00:00 TS 27.9000 -94.9000 50 hurdat_atl main 121 92 O____________O hurdat_atl AL061898 27.9000 -94.9000 TS 50 0 27.9000 -94.9000 TS 45 7 358
1898264N11280 1898 42 NA GM NOT_NAMED 1898-09-27 21:00:00 TS 28.2472 -94.8652 main 92 59 P____________P AL061898 28.2425 -94.8651 TS 50 0 28.2565 -94.8654 TS 42 7 7
1898264N11280 1898 42 NA GM NOT_NAMED 1898-09-28 00:00:00 TS 28.6000 -94.8000 50 hurdat_atl main 59 40 O____________O hurdat_atl AL061898 28.6000 -94.8000 TS 50 0 28.6000 -94.8000 TS 40 7 8
1898264N11280 1898 42 NA GM NOT_NAMED 1898-09-28 03:00:00 TS 28.9098 -94.7505 main 40 22 P____________P AL061898 28.9635 -94.7365 TS 50 0 28.8023 -94.7785 TS 6 7
1898264N11280 1898 42 NA GM NOT_NAMED 1898-09-28 06:00:00 TS 29.1687 -94.7250 50 hurdat_atl main 22 22 O____________P hurdat_atl AL061898 29.3000 -94.7000 TS 50 0 28.9061 -94.7750 TS 5 0
1898264N11280 1898 42 NA GM NOT_NAMED 1898-09-28 07:00:00 TS 29.2415 -94.7255 50 hurdat_atl main 22 9 O____________P hurdat_atl AL061898 29.4000 -94.7000 L TS 50 0 28.9246 -94.7765 TS 5 12
1898264N11280 1898 42 NA GM NOT_NAMED 1898-09-28 09:00:00 TS 29.3943 -94.6895 main 9 0 P____________P AL061898 29.6192 -94.6433 TS 45 0 28.9444 -94.7819 TS 4 16
1898264N11280 1898 42 NA GM NOT_NAMED 1898-09-28 12:00:00 TS 29.5799 -94.6166 40 hurdat_atl main 0 0 O____________P hurdat_atl AL061898 30.0000 -94.5000 TS 40 0 28.9498 -94.7914 TS 3 13
1898264N11280 1898 42 NA NA NOT_NAMED 1898-09-28 15:00:00 TS 29.6953 -94.6093 main 0 0 P____________P AL061898 30.4353 -94.4227 TS 35 0 28.9553 -94.7958 TS 1 316
1898264N11280 1898 42 NA NA NOT_NAMED 1898-09-28 18:00:00 TS 29.6291 -94.6582 30 hurdat_atl main 0 0 O____________P hurdat_atl AL061898 30.9000 -94.4000 TD 30 -1 28.9936 -94.7872 TS 6 192
1898264N11280 1898 42 NA GM NOT_NAMED 1898-09-28 21:00:00 TS 29.0976 -94.7580 main 24 14 _____________P AL061898 TD -1 29.0976 -94.7580 TS 3 186
1898264N11280 1898 42 NA GM NOT_NAMED 1898-09-29 00:00:00 TS 29.3000 -94.7000 main 14 0 _____________O 29.3000 -94.7000 TS 40 5 15
1898264N11280 1898 42 NA NA NOT_NAMED 1898-09-29 03:00:00 TS 29.6176 -94.5965 main 0 0 _____________P 29.6176 -94.5965 TS 37 7 14
1898264N11280 1898 42 NA NA NOT_NAMED 1898-09-29 06:00:00 TS 30.0000 -94.5000 main 0 0 _____________O 30.0000 -94.5000 TS 35 8 10
1898264N11280 1898 42 NA NA NOT_NAMED 1898-09-29 09:00:00 TS 30.4358 -94.4387 main 0 0 _____________P 30.4358 -94.4387 TS 32 9 5
1898264N11280 1898 42 NA NA NOT_NAMED 1898-09-29 12:00:00 TS 30.9000 -94.4000 main 0 _____________O 30.9000 -94.4000 TD 30 9 6

About IBTrACS Database

This database is a web-friendly format of International Best Track Archive for Climate Stewardship (IBTrACS), a global best track data archive curated by NOAA dating back to 1842.

Updated: 2021-10-19